sensor_id;sensor_type;location;lat;lon;timestamp;pressure;altitude;pressure_sealevel;temperature;humidity
29215;BME280;16252;49.816;7.964;2023-01-25T00:01:38;101900.91;;;5.34;63.24
29215;BME280;16252;49.816;7.964;2023-01-25T00:04:04;101901.72;;;5.37;63.51
29215;BME280;16252;49.816;7.964;2023-01-25T00:06:29;101907.72;;;5.44;63.30
29215;BME280;16252;49.816;7.964;2023-01-25T00:08:54;101885.06;;;5.31;63.18
29215;BME280;16252;49.816;7.964;2023-01-25T00:11:19;101886.56;;;5.41;63.44
29215;BME280;16252;49.816;7.964;2023-01-25T00:13:45;101893.69;;;5.39;63.35
29215;BME280;16252;49.816;7.964;2023-01-25T00:16:10;101898.91;;;5.43;63.27
29215;BME280;16252;49.816;7.964;2023-01-25T00:18:36;101897.09;;;5.46;63.30
29215;BME280;16252;49.816;7.964;2023-01-25T00:21:19;101902.94;;;5.60;63.21
29215;BME280;16252;49.816;7.964;2023-01-25T00:23:45;101886.56;;;5.41;63.29
29215;BME280;16252;49.816;7.964;2023-01-25T00:26:10;101900.47;;;5.52;63.11
29215;BME280;16252;49.816;7.964;2023-01-25T00:28:36;101905.78;;;5.52;63.33
29215;BME280;16252;49.816;7.964;2023-01-25T00:31:03;101889.09;;;5.47;63.27
29215;BME280;16252;49.816;7.964;2023-01-25T00:33:39;101895.16;;;5.52;63.08
29215;BME280;16252;49.816;7.964;2023-01-25T00:38:52;101876.03;;;5.38;63.32
29215;BME280;16252;49.816;7.964;2023-01-25T00:41:18;101874.31;;;5.37;63.33
29215;BME280;16252;49.816;7.964;2023-01-25T00:43:43;101887.38;;;5.45;63.38
29215;BME280;16252;49.816;7.964;2023-01-25T00:46:13;101882.00;;;5.46;63.12
29215;BME280;16252;49.816;7.964;2023-01-25T00:48:39;101868.94;;;5.38;63.35
29215;BME280;16252;49.816;7.964;2023-01-25T00:51:05;101846.06;;;5.33;63.32
29215;BME280;16252;49.816;7.964;2023-01-25T00:53:30;101778.94;;;4.93;63.52
29215;BME280;16252;49.816;7.964;2023-01-25T00:55:55;101860.09;;;5.38;63.32
29215;BME280;16252;49.816;7.964;2023-01-25T00:58:20;101887.25;;;5.49;63.35
29215;BME280;16252;49.816;7.964;2023-01-25T01:00:45;101837.38;;;5.26;63.41
29215;BME280;16252;49.816;7.964;2023-01-25T01:03:11;101860.88;;;5.41;63.51
29215;BME280;16252;49.816;7.964;2023-01-25T01:05:36;101844.25;;;5.35;63.39
29215;BME280;16252;49.816;7.964;2023-01-25T01:08:02;101855.66;;;5.38;63.59
29215;BME280;16252;49.816;7.964;2023-01-25T01:10:27;101856.50;;;5.40;63.36
29215;BME280;16252;49.816;7.964;2023-01-25T01:12:53;101860.84;;;5.45;63.44
29215;BME280;16252;49.816;7.964;2023-01-25T01:15:18;101865.03;;;5.53;63.58
29215;BME280;16252;49.816;7.964;2023-01-25T01:17:44;101865.03;;;5.52;63.55
29215;BME280;16252;49.816;7.964;2023-01-25T01:20:09;101838.00;;;5.37;63.56
29215;BME280;16252;49.816;7.964;2023-01-25T01:22:35;101855.53;;;5.45;63.48
29215;BME280;16252;49.816;7.964;2023-01-25T01:25:00;101845.78;;;5.45;63.61
29215;BME280;16252;49.816;7.964;2023-01-25T01:27:26;101844.06;;;5.42;63.58
29215;BME280;16252;49.816;7.964;2023-01-25T01:29:51;101829.31;;;5.31;63.49
29215;BME280;16252;49.816;7.964;2023-01-25T01:32:16;101856.38;;;5.45;63.51
29215;BME280;16252;49.816;7.964;2023-01-25T01:34:42;101857.97;;;5.52;63.60
29215;BME280;16252;49.816;7.964;2023-01-25T01:37:08;101848.38;;;5.47;63.55
29215;BME280;16252;49.816;7.964;2023-01-25T01:39:33;101850.16;;;5.46;63.51
29215;BME280;16252;49.816;7.964;2023-01-25T01:41:59;101844.09;;;5.41;63.55
29215;BME280;16252;49.816;7.964;2023-01-25T01:47:16;101824.75;;;5.36;63.55
29215;BME280;16252;49.816;7.964;2023-01-25T01:49:48;101850.00;;;5.52;63.62
29215;BME280;16252;49.816;7.964;2023-01-25T01:52:16;101863.09;;;5.60;63.53
29215;BME280;16252;49.816;7.964;2023-01-25T01:54:58;101861.31;;;5.60;63.86
29215;BME280;16252;49.816;7.964;2023-01-25T01:57:46;101848.91;;;5.59;63.68
29215;BME280;16252;49.816;7.964;2023-01-25T02:00:31;101854.88;;;5.69;63.69
29215;BME280;16252;49.816;7.964;2023-01-25T02:02:59;101829.66;;;5.51;63.64
29215;BME280;16252;49.816;7.964;2023-01-25T02:05:30;101835.59;;;5.62;63.88
29215;BME280;16252;49.816;7.964;2023-01-25T02:07:57;101848.78;;;5.65;63.64
29215;BME280;16252;49.816;7.964;2023-01-25T02:10:25;101812.09;;;5.47;63.87
29215;BME280;16252;49.816;7.964;2023-01-25T02:12:53;101844.31;;;5.68;63.61
29215;BME280;16252;49.816;7.964;2023-01-25T02:15:19;101847.91;;;5.65;63.63
29215;BME280;16252;49.816;7.964;2023-01-25T02:17:46;101835.69;;;5.58;63.49
29215;BME280;16252;49.816;7.964;2023-01-25T02:20:25;101836.28;;;5.69;63.36
29215;BME280;16252;49.816;7.964;2023-01-25T02:26:00;101674.34;;;4.69;63.45
29215;BME280;16252;49.816;7.964;2023-01-25T02:29:23;101771.91;;;5.27;63.37
29215;BME280;16252;49.816;7.964;2023-01-25T02:31:49;101639.72;;;4.40;63.70
29215;BME280;16252;49.816;7.964;2023-01-25T02:34:17;101661.47;;;4.52;63.60
29215;BME280;16252;49.816;7.964;2023-01-25T02:36:43;101669.22;;;4.62;63.80
29215;BME280;16252;49.816;7.964;2023-01-25T02:39:12;101686.72;;;4.69;63.78
29215;BME280;16252;49.816;7.964;2023-01-25T02:41:45;101658.72;;;4.57;63.74
29215;BME280;16252;49.816;7.964;2023-01-25T02:44:17;101676.16;;;4.66;63.59
29215;BME280;16252;49.816;7.964;2023-01-25T02:46:44;101685.78;;;4.71;63.96
29215;BME280;16252;49.816;7.964;2023-01-25T02:49:10;101686.66;;;4.70;63.80
29215;BME280;16252;49.816;7.964;2023-01-25T02:54:55;101673.41;;;4.70;63.77
29215;BME280;16252;49.816;7.964;2023-01-25T02:57:26;101772.78;;;5.27;63.78
29215;BME280;16252;49.816;7.964;2023-01-25T03:00:07;101669.06;;;4.68;63.52
29215;BME280;16252;49.816;7.964;2023-01-25T03:02:35;101768.38;;;5.26;63.63
29215;BME280;16252;49.816;7.964;2023-01-25T03:05:05;101674.41;;;4.66;63.59
29215;BME280;16252;49.816;7.964;2023-01-25T03:07:35;101828.47;;;5.63;63.75
29215;BME280;16252;49.816;7.964;2023-01-25T03:10:04;101744.25;;;5.01;63.59
29215;BME280;16252;49.816;7.964;2023-01-25T03:12:30;101664.91;;;4.57;63.57
29215;BME280;16252;49.816;7.964;2023-01-25T03:15:01;101662.50;;;4.47;63.52
29215;BME280;16252;49.816;7.964;2023-01-25T03:17:30;101667.72;;;4.50;63.59
29215;BME280;16252;49.816;7.964;2023-01-25T03:20:06;101747.66;;;5.06;63.54
29215;BME280;16252;49.816;7.964;2023-01-25T03:22:31;101730.47;;;4.87;63.75
29215;BME280;16252;49.816;7.964;2023-01-25T03:25:00;101659.09;;;4.43;63.64
29215;BME280;16252;49.816;7.964;2023-01-25T03:27:29;101731.44;;;4.83;63.71
29215;BME280;16252;49.816;7.964;2023-01-25T03:29:58;101764.41;;;5.08;63.60
29215;BME280;16252;49.816;7.964;2023-01-25T03:32:23;101653.78;;;4.43;63.75
29215;BME280;16252;49.816;7.964;2023-01-25T03:34:49;101713.91;;;4.77;63.83
29215;BME280;16252;49.816;7.964;2023-01-25T03:37:33;101813.06;;;5.43;63.84
29215;BME280;16252;49.816;7.964;2023-01-25T03:40:04;101799.81;;;5.41;63.99
29215;BME280;16252;49.816;7.964;2023-01-25T03:42:30;101634.50;;;4.37;63.91
29215;BME280;16252;49.816;7.964;2023-01-25T03:44:56;101765.22;;;5.12;63.97
29215;BME280;16252;49.816;7.964;2023-01-25T03:47:21;101798.25;;;5.34;63.92
29215;BME280;16252;49.816;7.964;2023-01-25T03:49:47;101624.09;;;4.29;63.88
29215;BME280;16252;49.816;7.964;2023-01-25T03:52:12;101643.38;;;4.36;63.88
29215;BME280;16252;49.816;7.964;2023-01-25T03:54:38;101656.38;;;4.45;63.76
29215;BME280;16252;49.816;7.964;2023-01-25T03:57:03;101804.47;;;5.33;63.79
29215;BME280;16252;49.816;7.964;2023-01-25T03:59:29;101660.06;;;4.39;63.84
29215;BME280;16252;49.816;7.964;2023-01-25T04:01:54;101644.34;;;4.30;63.87
29215;BME280;16252;49.816;7.964;2023-01-25T04:04:23;101752.34;;;4.96;63.94
29215;BME280;16252;49.816;7.964;2023-01-25T04:06:48;101651.25;;;4.37;63.82
29215;BME280;16252;49.816;7.964;2023-01-25T04:09:13;101621.50;;;4.26;63.95
29215;BME280;16252;49.816;7.964;2023-01-25T04:11:39;101641.66;;;4.33;63.78
29215;BME280;16252;49.816;7.964;2023-01-25T04:14:15;101628.47;;;4.30;63.79
29215;BME280;16252;49.816;7.964;2023-01-25T04:16:50;101794.72;;;5.34;63.98
29215;BME280;16252;49.816;7.964;2023-01-25T04:19:24;101631.16;;;4.28;63.78
29215;BME280;16252;49.816;7.964;2023-01-25T04:21:55;101793.31;;;5.19;63.73
29215;BME280;16252;49.816;7.964;2023-01-25T04:24:34;101624.09;;;4.27;63.72
29215;BME280;16252;49.816;7.964;2023-01-25T04:27:03;101802.09;;;5.22;63.82
29215;BME280;16252;49.816;7.964;2023-01-25T04:29:41;101615.56;;;4.16;63.68
29215;BME280;16252;49.816;7.964;2023-01-25T04:32:10;101643.47;;;4.31;63.64
29215;BME280;16252;49.816;7.964;2023-01-25T04:34:35;101688.72;;;4.59;63.86
29215;BME280;16252;49.816;7.964;2023-01-25T04:37:07;101606.88;;;4.09;63.64
29215;BME280;16252;49.816;7.964;2023-01-25T04:39:36;101789.78;;;5.20;63.95
29215;BME280;16252;49.816;7.964;2023-01-25T04:42:08;101615.63;;;4.13;63.89
29215;BME280;16252;49.816;7.964;2023-01-25T04:44:34;101627.88;;;4.19;63.73
29215;BME280;16252;49.816;7.964;2023-01-25T04:47:09;101617.28;;;4.17;63.93
29215;BME280;16252;49.816;7.964;2023-01-25T04:49:38;101777.56;;;5.13;63.89
29215;BME280;16252;49.816;7.964;2023-01-25T04:52:04;101754.81;;;5.04;63.99
29215;BME280;16252;49.816;7.964;2023-01-25T04:54:29;101785.34;;;5.19;64.19
29215;BME280;16252;49.816;7.964;2023-01-25T04:56:54;101770.38;;;5.16;64.04
29215;BME280;16252;49.816;7.964;2023-01-25T04:59:19;101775.69;;;5.16;64.01
29215;BME280;16252;49.816;7.964;2023-01-25T05:01:45;101745.91;;;5.07;64.14
29215;BME280;16252;49.816;7.964;2023-01-25T05:04:10;101755.41;;;5.14;64.05
29215;BME280;16252;49.816;7.964;2023-01-25T05:06:35;101765.91;;;5.18;63.99
29215;BME280;16252;49.816;7.964;2023-01-25T05:09:00;101771.84;;;5.30;63.97
29215;BME280;16252;49.816;7.964;2023-01-25T05:11:26;101775.38;;;5.29;63.82
29215;BME280;16252;49.816;7.964;2023-01-25T05:13:51;101743.03;;;5.14;63.96
29215;BME280;16252;49.816;7.964;2023-01-25T05:16:18;101737.84;;;5.10;63.94
29215;BME280;16252;49.816;7.964;2023-01-25T05:18:44;101761.31;;;5.27;63.96
29215;BME280;16252;49.816;7.964;2023-01-25T05:21:09;101712.56;;;4.95;63.94
29215;BME280;16252;49.816;7.964;2023-01-25T05:23:54;101649.59;;;4.69;64.01
29215;BME280;16252;49.816;7.964;2023-01-25T05:26:19;101762.94;;;5.31;64.08
29215;BME280;16252;49.816;7.964;2023-01-25T05:29:03;101716.44;;;5.16;63.92
29215;BME280;16252;49.816;7.964;2023-01-25T05:31:28;101718.22;;;5.15;63.87
29215;BME280;16252;49.816;7.964;2023-01-25T05:33:54;101727.78;;;5.22;63.93
29215;BME280;16252;49.816;7.964;2023-01-25T05:36:19;101696.34;;;5.07;63.90
29215;BME280;16252;49.816;7.964;2023-01-25T05:38:44;101713.69;;;5.19;63.83
29215;BME280;16252;49.816;7.964;2023-01-25T05:41:09;101710.34;;;5.12;63.97
29215;BME280;16252;49.816;7.964;2023-01-25T05:43:35;101680.56;;;5.01;64.00
29215;BME280;16252;49.816;7.964;2023-01-25T05:46:00;101732.09;;;5.27;64.04
29215;BME280;16252;49.816;7.964;2023-01-25T05:48:26;101686.81;;;5.00;63.96
29215;BME280;16252;49.816;7.964;2023-01-25T05:50:51;101725.00;;;5.27;63.99
29215;BME280;16252;49.816;7.964;2023-01-25T05:53:17;101729.47;;;5.27;64.05
29215;BME280;16252;49.816;7.964;2023-01-25T05:55:42;101687.56;;;5.05;63.92
29215;BME280;16252;49.816;7.964;2023-01-25T05:58:07;101669.22;;;4.96;63.84
29215;BME280;16252;49.816;7.964;2023-01-25T06:00:32;101642.34;;;4.75;64.03
29215;BME280;16252;49.816;7.964;2023-01-25T06:03:00;101719.78;;;5.24;64.03
29215;BME280;16252;49.816;7.964;2023-01-25T06:05:26;101699.75;;;5.12;64.13
29215;BME280;16252;49.816;7.964;2023-01-25T06:07:51;101691.88;;;5.09;63.83
29215;BME280;16252;49.816;7.964;2023-01-25T06:10:16;101714.41;;;5.27;64.25
29215;BME280;16252;49.816;7.964;2023-01-25T06:12:42;101703.94;;;5.21;64.10
29215;BME280;16252;49.816;7.964;2023-01-25T06:15:07;101719.84;;;5.21;63.84
29215;BME280;16252;49.816;7.964;2023-01-25T06:17:33;101684.91;;;5.05;63.92
29215;BME280;16252;49.816;7.964;2023-01-25T06:19:58;101719.53;;;5.33;63.99
29215;BME280;16252;49.816;7.964;2023-01-25T06:22:23;101690.94;;;5.10;63.84
29215;BME280;16252;49.816;7.964;2023-01-25T06:24:48;101703.16;;;5.17;63.92
29215;BME280;16252;49.816;7.964;2023-01-25T06:27:14;101680.44;;;5.07;63.97
29215;BME280;16252;49.816;7.964;2023-01-25T06:29:39;101724.84;;;5.33;63.93
29215;BME280;16252;49.816;7.964;2023-01-25T06:32:04;101682.06;;;5.11;63.76
29215;BME280;16252;49.816;7.964;2023-01-25T06:34:30;101723.25;;;5.26;63.87
29215;BME280;16252;49.816;7.964;2023-01-25T06:36:55;101711.09;;;5.17;63.96
29215;BME280;16252;49.816;7.964;2023-01-25T06:39:21;101714.59;;;5.19;64.02
29215;BME280;16252;49.816;7.964;2023-01-25T06:41:46;101709.44;;;5.13;64.01
29215;BME280;16252;49.816;7.964;2023-01-25T06:44:11;101697.03;;;5.14;64.01
29215;BME280;16252;49.816;7.964;2023-01-25T06:46:36;101711.25;;;5.11;63.90
29215;BME280;16252;49.816;7.964;2023-01-25T06:49:02;101695.47;;;5.07;64.00
29215;BME280;16252;49.816;7.964;2023-01-25T06:51:28;101724.25;;;5.22;63.97
29215;BME280;16252;49.816;7.964;2023-01-25T06:53:53;101687.72;;;4.99;64.04
29215;BME280;16252;49.816;7.964;2023-01-25T06:56:20;101718.97;;;5.20;64.06
29215;BME280;16252;49.816;7.964;2023-01-25T06:58:46;101679.69;;;5.02;64.09
29215;BME280;16252;49.816;7.964;2023-01-25T07:01:20;101594.25;;;4.55;64.05
29215;BME280;16252;49.816;7.964;2023-01-25T07:03:50;101710.91;;;5.25;64.24
29215;BME280;16252;49.816;7.964;2023-01-25T07:06:16;101712.75;;;5.21;64.10
29215;BME280;16252;49.816;7.964;2023-01-25T07:08:41;101657.31;;;4.78;64.16
29215;BME280;16252;49.816;7.964;2023-01-25T07:11:09;101719.81;;;5.22;64.08
29215;BME280;16252;49.816;7.964;2023-01-25T07:13:39;101719.91;;;5.19;64.28
29215;BME280;16252;49.816;7.964;2023-01-25T07:16:06;101702.50;;;5.09;64.12
29215;BME280;16252;49.816;7.964;2023-01-25T07:18:32;101639.94;;;4.66;64.01
29215;BME280;16252;49.816;7.964;2023-01-25T07:21:18;101693.81;;;5.03;64.01
29215;BME280;16252;49.816;7.964;2023-01-25T07:23:44;101688.72;;;4.93;64.03
29215;BME280;16252;49.816;7.964;2023-01-25T07:26:19;101723.50;;;5.17;64.22
29215;BME280;16252;49.816;7.964;2023-01-25T07:28:45;101726.22;;;5.14;64.22
29215;BME280;16252;49.816;7.964;2023-01-25T07:31:11;101686.06;;;4.93;64.09
29215;BME280;16252;49.816;7.964;2023-01-25T07:33:36;101665.22;;;4.80;64.37
29215;BME280;16252;49.816;7.964;2023-01-25T07:36:03;101709.53;;;5.10;64.38
29215;BME280;16252;49.816;7.964;2023-01-25T07:38:29;101655.66;;;4.74;64.20
29215;BME280;16252;49.816;7.964;2023-01-25T07:40:54;101717.47;;;5.10;64.47
29215;BME280;16252;49.816;7.964;2023-01-25T07:43:20;101703.38;;;5.08;64.47
29215;BME280;16252;49.816;7.964;2023-01-25T07:45:45;101680.78;;;4.93;64.49
29215;BME280;16252;49.816;7.964;2023-01-25T07:48:14;101695.72;;;4.97;64.56
29215;BME280;16252;49.816;7.964;2023-01-25T07:50:40;101701.75;;;5.04;64.44
29215;BME280;16252;49.816;7.964;2023-01-25T07:53:08;101656.22;;;4.85;64.69
29215;BME280;16252;49.816;7.964;2023-01-25T07:55:34;101727.88;;;5.19;64.53
29215;BME280;16252;49.816;7.964;2023-01-25T07:57:59;101668.53;;;4.88;64.42
29215;BME280;16252;49.816;7.964;2023-01-25T08:00:25;101720.72;;;5.21;64.46
29215;BME280;16252;49.816;7.964;2023-01-25T08:02:51;101673.72;;;4.94;64.48
29215;BME280;16252;49.816;7.964;2023-01-25T08:05:17;101724.25;;;5.22;64.31
29215;BME280;16252;49.816;7.964;2023-01-25T08:07:43;101715.56;;;5.17;64.56
29215;BME280;16252;49.816;7.964;2023-01-25T08:10:09;101710.34;;;5.12;64.53
29215;BME280;16252;49.816;7.964;2023-01-25T08:12:34;101712.00;;;5.16;64.49
29215;BME280;16252;49.816;7.964;2023-01-25T08:15:00;101723.31;;;5.25;64.59
29215;BME280;16252;49.816;7.964;2023-01-25T08:17:25;101684.88;;;5.07;64.32
29215;BME280;16252;49.816;7.964;2023-01-25T08:19:56;101699.75;;;5.12;64.52
29215;BME280;16252;49.816;7.964;2023-01-25T08:22:22;101684.97;;;5.02;64.44
29215;BME280;16252;49.816;7.964;2023-01-25T08:24:47;101552.66;;;4.24;64.05
29215;BME280;16252;49.816;7.964;2023-01-25T08:27:13;101700.81;;;5.05;64.31
29215;BME280;16252;49.816;7.964;2023-01-25T08:29:38;101645.81;;;4.77;64.35
29215;BME280;16252;49.816;7.964;2023-01-25T08:32:03;101489.00;;;3.91;64.18
29215;BME280;16252;49.816;7.964;2023-01-25T08:34:30;101685.84;;;5.03;64.43
29215;BME280;16252;49.816;7.964;2023-01-25T08:36:56;101685.94;;;4.99;64.40
29215;BME280;16252;49.816;7.964;2023-01-25T08:39:21;101494.19;;;3.96;64.28
29215;BME280;16252;49.816;7.964;2023-01-25T08:41:47;101465.44;;;3.82;64.21
29215;BME280;16252;49.816;7.964;2023-01-25T08:44:12;101696.25;;;5.10;64.15
29215;BME280;16252;49.816;7.964;2023-01-25T08:46:37;101708.47;;;5.17;64.39
29215;BME280;16252;49.816;7.964;2023-01-25T08:49:03;101586.41;;;4.52;64.32
29215;BME280;16252;49.816;7.964;2023-01-25T08:51:30;101635.97;;;4.83;64.52
29215;BME280;16252;49.816;7.964;2023-01-25T08:53:56;101500.91;;;4.09;64.17
29215;BME280;16252;49.816;7.964;2023-01-25T08:56:22;101688.88;;;5.21;64.46
29215;BME280;16252;49.816;7.964;2023-01-25T08:58:48;101695.94;;;5.22;64.37
29215;BME280;16252;49.816;7.964;2023-01-25T09:01:15;101567.84;;;4.52;64.40
29215;BME280;16252;49.816;7.964;2023-01-25T09:03:47;101696.72;;;5.26;64.61
29215;BME280;16252;49.816;7.964;2023-01-25T09:06:13;101498.25;;;4.09;64.35
29215;BME280;16252;49.816;7.964;2023-01-25T09:08:39;101694.13;;;5.25;64.37
29215;BME280;16252;49.816;7.964;2023-01-25T09:11:06;101507.81;;;4.15;64.53
29215;BME280;16252;49.816;7.964;2023-01-25T09:13:32;101568.75;;;4.51;64.42
29215;BME280;16252;49.816;7.964;2023-01-25T09:16:05;101595.66;;;4.68;64.44
29215;BME280;16252;49.816;7.964;2023-01-25T09:18:31;101490.44;;;4.05;64.18
29215;BME280;16252;49.816;7.964;2023-01-25T09:20:57;101693.19;;;5.26;64.36
29215;BME280;16252;49.816;7.964;2023-01-25T09:23:23;101493.13;;;4.03;64.26
29215;BME280;16252;49.816;7.964;2023-01-25T09:25:55;101507.78;;;4.18;64.11
29215;BME280;16252;49.816;7.964;2023-01-25T09:28:21;101533.91;;;4.32;64.24
29215;BME280;16252;49.816;7.964;2023-01-25T09:30:53;101460.69;;;3.95;64.19
29215;BME280;16252;49.816;7.964;2023-01-25T09:33:19;101484.25;;;4.06;64.35
29215;BME280;16252;49.816;7.964;2023-01-25T09:35:48;101471.88;;;4.05;64.38
29215;BME280;16252;49.816;7.964;2023-01-25T09:38:13;101563.19;;;4.60;64.56
29215;BME280;16252;49.816;7.964;2023-01-25T09:40:40;101514.41;;;4.34;64.41
29215;BME280;16252;49.816;7.964;2023-01-25T09:45:45;101671.09;;;5.25;64.56
29215;BME280;16252;49.816;7.964;2023-01-25T09:53:34;101481.09;;;4.24;64.30
29215;BME280;16252;49.816;7.964;2023-01-25T09:56:24;101462.66;;;4.20;64.10
29215;BME280;16252;49.816;7.964;2023-01-25T09:58:54;101445.25;;;4.11;64.16
29215;BME280;16252;49.816;7.964;2023-01-25T10:01:27;101478.56;;;4.20;64.27
29215;BME280;16252;49.816;7.964;2023-01-25T10:04:11;101474.19;;;4.19;64.26
29215;BME280;16252;49.816;7.964;2023-01-25T10:06:40;101549.69;;;4.69;64.27
29215;BME280;16252;49.816;7.964;2023-01-25T10:11:42;101540.16;;;4.62;64.39
29215;BME280;16252;49.816;7.964;2023-01-25T10:14:16;101515.78;;;4.49;64.19
29215;BME280;16252;49.816;7.964;2023-01-25T10:19:43;101664.50;;;5.40;64.25
29215;BME280;16252;49.816;7.964;2023-01-25T10:22:22;101503.72;;;4.38;64.17
29215;BME280;16252;49.816;7.964;2023-01-25T10:27:53;101650.50;;;5.33;64.32
29215;BME280;16252;49.816;7.964;2023-01-25T10:30:26;101602.69;;;5.04;64.22
29215;BME280;16252;49.816;7.964;2023-01-25T10:32:54;101499.16;;;4.43;64.20
29215;BME280;16252;49.816;7.964;2023-01-25T10:35:25;101450.38;;;4.17;64.21
29215;BME280;16252;49.816;7.964;2023-01-25T10:37:52;101568.81;;;4.81;64.36
29215;BME280;16252;49.816;7.964;2023-01-25T10:40:20;101562.50;;;4.86;64.25
29215;BME280;16252;49.816;7.964;2023-01-25T10:42:52;101505.78;;;4.59;64.37
29215;BME280;16252;49.816;7.964;2023-01-25T10:45:19;101411.88;;;4.04;64.37
29215;BME280;16252;49.816;7.964;2023-01-25T10:47:51;101420.59;;;4.07;64.23
29215;BME280;16252;49.816;7.964;2023-01-25T10:53:03;101425.78;;;4.12;64.45
29215;BME280;16252;49.816;7.964;2023-01-25T10:55:28;101436.88;;;4.26;64.43
29215;BME280;16252;49.816;7.964;2023-01-25T10:57:56;101396.00;;;4.04;64.54
29215;BME280;16252;49.816;7.964;2023-01-25T11:00:39;101398.19;;;4.21;64.58
29215;BME280;16252;49.816;7.964;2023-01-25T11:03:08;101471.25;;;4.61;64.52
29215;BME280;16252;49.816;7.964;2023-01-25T11:05:52;101390.28;;;4.19;64.42
29215;BME280;16252;49.816;7.964;2023-01-25T11:10:50;101490.22;;;4.78;64.41
29215;BME280;16252;49.816;7.964;2023-01-25T11:15:51;101378.81;;;4.19;64.60
29215;BME280;16252;49.816;7.964;2023-01-25T11:18:20;101361.13;;;4.19;64.36
29215;BME280;16252;49.816;7.964;2023-01-25T11:20:46;101337.59;;;4.08;64.38
29215;BME280;16252;49.816;7.964;2023-01-25T11:23:23;101438.28;;;4.71;64.43
29215;BME280;16252;49.816;7.964;2023-01-25T11:25:49;101365.28;;;4.28;64.49
29215;BME280;16252;49.816;7.964;2023-01-25T11:28:23;101426.25;;;4.59;64.77
29215;BME280;16252;49.816;7.964;2023-01-25T11:30:50;101465.88;;;4.95;64.78
29215;BME280;16252;49.816;7.964;2023-01-25T11:33:18;101479.75;;;5.05;64.64
29215;BME280;16252;49.816;7.964;2023-01-25T11:38:34;101391.72;;;4.61;64.60
29215;BME280;16252;49.816;7.964;2023-01-25T11:41:09;101338.59;;;4.36;64.38
29215;BME280;16252;49.816;7.964;2023-01-25T11:46:36;101532.97;;;5.58;64.48
29215;BME280;16252;49.816;7.964;2023-01-25T11:51:47;101491.88;;;5.41;64.42
29215;BME280;16252;49.816;7.964;2023-01-25T11:54:38;101519.56;;;5.62;64.58
29215;BME280;16252;49.816;7.964;2023-01-25T11:57:33;101505.38;;;5.62;64.33
29215;BME280;16252;49.816;7.964;2023-01-25T12:05:55;101501.16;;;5.56;64.26
29215;BME280;16252;49.816;7.964;2023-01-25T12:11:02;101481.06;;;5.48;64.39
29215;BME280;16252;49.816;7.964;2023-01-25T12:13:59;101466.16;;;5.43;64.43
29215;BME280;16252;49.816;7.964;2023-01-25T12:25:28;101468.28;;;5.60;64.32
29215;BME280;16252;49.816;7.964;2023-01-25T12:28:22;101456.78;;;5.60;64.21
29215;BME280;16252;49.816;7.964;2023-01-25T12:31:01;101448.03;;;5.56;64.03
29215;BME280;16252;49.816;7.964;2023-01-25T12:33:45;101409.78;;;5.35;64.38
29215;BME280;16252;49.816;7.964;2023-01-25T12:36:27;101429.69;;;5.49;64.46
29215;BME280;16252;49.816;7.964;2023-01-25T12:39:02;101416.66;;;5.42;64.41
29215;BME280;16252;49.816;7.964;2023-01-25T12:41:44;101405.06;;;5.45;64.58
29215;BME280;16252;49.816;7.964;2023-01-25T12:44:32;101332.28;;;4.97;64.16
29215;BME280;16252;49.816;7.964;2023-01-25T12:47:17;101405.94;;;5.44;64.11
29215;BME280;16252;49.816;7.964;2023-01-25T12:50:16;101410.16;;;5.51;64.23
29215;BME280;16252;49.816;7.964;2023-01-25T12:52:50;101399.63;;;5.48;64.32
29215;BME280;16252;49.816;7.964;2023-01-25T12:55:17;101372.88;;;5.28;64.21
29215;BME280;16252;49.816;7.964;2023-01-25T12:57:50;101359.56;;;5.29;64.30
29215;BME280;16252;49.816;7.964;2023-01-25T13:03:07;101391.81;;;5.43;64.26
29215;BME280;16252;49.816;7.964;2023-01-25T13:08:21;101374.91;;;5.46;64.32
29215;BME280;16252;49.816;7.964;2023-01-25T13:10:56;101375.03;;;5.43;64.38
29215;BME280;16252;49.816;7.964;2023-01-25T13:13:26;101382.97;;;5.45;64.26
29215;BME280;16252;49.816;7.964;2023-01-25T13:15:53;101375.88;;;5.43;64.48
29215;BME280;16252;49.816;7.964;2023-01-25T13:20:57;101366.13;;;5.44;64.54
29215;BME280;16252;49.816;7.964;2023-01-25T13:23:39;101355.44;;;5.47;64.39
29215;BME280;16252;49.816;7.964;2023-01-25T13:28:57;101342.31;;;5.42;64.58
29215;BME280;16252;49.816;7.964;2023-01-25T13:37:01;101305.41;;;5.35;64.54
29215;BME280;16252;49.816;7.964;2023-01-25T13:42:03;101287.84;;;5.31;64.60
29215;BME280;16252;49.816;7.964;2023-01-25T13:44:31;101304.63;;;5.31;64.49
29215;BME280;16252;49.816;7.964;2023-01-25T13:46:59;101319.31;;;5.41;64.33
29215;BME280;16252;49.816;7.964;2023-01-25T13:52:21;101311.59;;;5.35;64.34
29215;BME280;16252;49.816;7.964;2023-01-25T13:54:48;101290.00;;;5.19;64.33
29215;BME280;16252;49.816;7.964;2023-01-25T13:57:20;101317.72;;;5.37;64.56
29215;BME280;16252;49.816;7.964;2023-01-25T13:59:46;101323.84;;;5.39;64.33
29215;BME280;16252;49.816;7.964;2023-01-25T14:02:22;101266.53;;;5.07;64.35
29215;BME280;16252;49.816;7.964;2023-01-25T14:04:50;101313.22;;;5.39;64.64
29215;BME280;16252;49.816;7.964;2023-01-25T14:07:19;101312.28;;;5.40;64.62
29215;BME280;16252;49.816;7.964;2023-01-25T14:09:48;101286.00;;;5.33;64.72
29215;BME280;16252;49.816;7.964;2023-01-25T14:12:30;101274.56;;;5.31;64.63
29215;BME280;16252;49.816;7.964;2023-01-25T14:15:25;101283.22;;;5.37;64.37
29215;BME280;16252;49.816;7.964;2023-01-25T14:18:13;101300.44;;;5.51;64.53
29215;BME280;16252;49.816;7.964;2023-01-25T14:20:43;101290.84;;;5.47;64.61
29215;BME280;16252;49.816;7.964;2023-01-25T14:25:44;101271.09;;;5.29;64.42
29215;BME280;16252;49.816;7.964;2023-01-25T14:28:11;101271.91;;;5.31;64.62
29215;BME280;16252;49.816;7.964;2023-01-25T14:30:39;101249.38;;;5.17;64.59
29215;BME280;16252;49.816;7.964;2023-01-25T14:35:45;101273.84;;;5.52;64.04
29215;BME280;16252;49.816;7.964;2023-01-25T14:40:54;101235.03;;;5.23;64.24
29215;BME280;16252;49.816;7.964;2023-01-25T14:43:21;101241.31;;;5.20;64.30